Terminal Aerodrome Forecast
Issued by NWS Boston, MA

Current Version | Previous Version | Text Only | Print | Product List | Glossary On
Versions: 1 2 3 4 5 6 7 8 9 10 11 12 13 14 15 16 17 18 19 20
000
FTUS41 KBOX 011120
TAFBDL
TAF
KBDL 011120Z 0112/0218 VRB03KT P6SM OVC100
     FM011400 17005KT P6SM VCSH OVC060
     FM011700 16007KT 6SM -RA OVC050
     FM012100 13006KT 3SM -RA BR OVC020
     FM020000 11007KT P6SM VCSH OVC010
     FM020800 04004KT P6SM OVC010=

USA.gov is the U.S. government's official web portal to all federal, state and local government web resources and services.